createdAt,value
2022-09-10T00:00:27.247Z,13.56
2022-09-10T00:03:14.101Z,13.57
2022-09-10T00:06:03.533Z,13.60
2022-09-10T00:08:50.196Z,13.57
2022-09-10T00:11:38.701Z,13.58
2022-09-10T00:14:25.713Z,13.53
2022-09-10T00:17:13.805Z,13.54
2022-09-10T00:20:00.787Z,13.56
2022-09-10T00:22:48.571Z,13.57
2022-09-10T00:25:35.744Z,13.76
2022-09-10T00:28:27.126Z,13.64
2022-09-10T00:31:14.386Z,13.72
2022-09-10T00:34:03.485Z,13.92
2022-09-10T00:36:50.054Z,13.88
2022-09-10T00:39:36.803Z,13.86
2022-09-10T00:42:23.617Z,13.78
2022-09-10T00:45:19.361Z,13.76
2022-09-10T00:48:11.637Z,13.70
2022-09-10T00:51:04.383Z,13.67
2022-09-10T00:53:51.968Z,13.63
2022-09-10T00:56:39.193Z,13.60
2022-09-10T00:59:27.361Z,13.63
2022-09-10T01:02:14.918Z,13.59
2022-09-10T01:05:04.924Z,13.62
2022-09-10T01:07:53.458Z,13.58
2022-09-10T01:10:51.075Z,13.55
2022-09-10T01:13:59.906Z,13.50
2022-09-10T01:16:53.921Z,13.49
2022-09-10T01:20:07.709Z,13.48
2022-09-10T01:23:26.363Z,13.47
2022-09-10T01:26:27.320Z,13.43
2022-09-10T01:29:21.391Z,13.38
2022-09-10T01:32:15.489Z,13.34
2022-09-10T01:35:15.703Z,13.30
2022-09-10T01:38:07.632Z,13.25
2022-09-10T01:40:56.191Z,13.19
2022-09-10T01:43:45.386Z,13.11
2022-09-10T01:46:48.121Z,13.07
2022-09-10T01:49:41.208Z,13.05
2022-09-10T01:52:38.229Z,13.06
2022-09-10T01:55:36.514Z,13.05
2022-09-10T01:58:31.009Z,12.97
2022-09-10T02:01:32.620Z,13.10
2022-09-10T02:04:23.349Z,13.09
2022-09-10T02:07:13.051Z,13.22
2022-09-10T02:10:03.852Z,13.09
2022-09-10T02:12:55.524Z,13.17
2022-09-10T02:15:56.723Z,13.11
2022-09-10T02:18:45.951Z,13.03
2022-09-10T02:21:35.727Z,13.07
2022-09-10T02:24:23.193Z,13.06
2022-09-10T02:27:10.125Z,12.99
2022-09-10T02:29:56.945Z,12.97
2022-09-10T02:32:43.935Z,12.95
2022-09-10T02:35:32.478Z,12.92
2022-09-10T02:38:21.571Z,12.89
2022-09-10T02:41:09.501Z,12.86
2022-09-10T02:43:56.614Z,12.84
2022-09-10T02:46:43.538Z,12.85
2022-09-10T02:49:30.284Z,12.80
2022-09-10T02:52:18.134Z,12.79
2022-09-10T02:55:08.567Z,12.75
2022-09-10T02:57:55.411Z,12.73
2022-09-10T03:00:42.806Z,12.70
2022-09-10T03:03:29.749Z,12.67
2022-09-10T03:06:16.374Z,12.71
2022-09-10T03:09:03.332Z,12.69
2022-09-10T03:11:52.758Z,12.71
2022-09-10T03:14:39.674Z,12.69
2022-09-10T03:17:26.590Z,12.68
2022-09-10T03:20:13.599Z,12.69
2022-09-10T03:23:00.116Z,12.65
2022-09-10T03:25:49.681Z,12.70
2022-09-10T03:28:39.535Z,12.69
2022-09-10T03:31:28.235Z,12.41
2022-09-10T03:34:15.438Z,12.61
2022-09-10T03:37:04.097Z,12.58
2022-09-10T03:39:51.479Z,12.74
2022-09-10T03:42:39.945Z,12.59
2022-09-10T03:45:28.768Z,12.61
2022-09-10T03:48:17.207Z,12.55
2022-09-10T03:51:05.241Z,12.47
2022-09-10T03:53:52.391Z,12.41
2022-09-10T03:56:41.796Z,12.32
2022-09-10T03:59:28.522Z,12.22
2022-09-10T04:02:20.395Z,12.14
2022-09-10T04:05:08.584Z,12.09
2022-09-10T04:07:58.839Z,12.08
2022-09-10T04:10:45.783Z,12.07
2022-09-10T04:13:33.033Z,12.07
2022-09-10T04:16:23.496Z,12.04
2022-09-10T04:19:12.891Z,12.04
2022-09-10T04:21:59.793Z,12.11
2022-09-10T04:24:46.709Z,12.08
2022-09-10T04:27:33.611Z,12.09
2022-09-10T04:30:20.518Z,12.09
2022-09-10T04:33:08.308Z,12.06
2022-09-10T04:35:56.456Z,12.11
2022-09-10T04:38:43.489Z,12.15
2022-09-10T04:41:32.762Z,12.12
2022-09-10T04:44:20.154Z,12.09
2022-09-10T04:47:07.968Z,12.12
2022-09-10T04:49:54.942Z,12.13
2022-09-10T04:52:43.966Z,12.17
2022-09-10T04:55:32.247Z,12.13
2022-09-10T04:58:21.802Z,12.13
2022-09-10T05:01:10.164Z,12.09
2022-09-10T05:03:57.340Z,12.08
2022-09-10T05:06:44.598Z,12.14
2022-09-10T05:09:33.930Z,12.30
2022-09-10T05:12:23.679Z,12.42
2022-09-10T05:15:13.134Z,12.50
2022-09-10T05:18:00.226Z,12.59
2022-09-10T05:20:47.691Z,12.63
2022-09-10T05:23:34.493Z,12.62
2022-09-10T05:26:26.042Z,12.58
2022-09-10T05:29:15.049Z,12.56
2022-09-10T05:32:01.833Z,12.64
2022-09-10T05:34:49.779Z,12.63
2022-09-10T05:37:37.234Z,12.69
2022-09-10T05:40:25.449Z,12.68
2022-09-10T05:43:14.506Z,12.76
2022-09-10T05:46:03.303Z,12.82
2022-09-10T05:48:50.726Z,12.84
2022-09-10T05:51:38.384Z,12.85
2022-09-10T05:54:25.286Z,12.84
2022-09-10T05:57:12.257Z,12.91
2022-09-10T06:00:01.331Z,12.95
2022-09-10T06:02:48.974Z,13.01
2022-09-10T06:05:50.412Z,13.20
2022-09-10T06:08:40.796Z,13.38
2022-09-10T06:11:34.775Z,13.52
2022-09-10T06:14:22.608Z,13.70
2022-09-10T06:17:10.686Z,13.79
2022-09-10T06:19:59.427Z,13.85
2022-09-10T06:22:48.019Z,14.13
2022-09-10T06:25:34.854Z,14.36
2022-09-10T06:28:21.705Z,14.43
2022-09-10T06:31:11.747Z,14.60
2022-09-10T06:33:59.535Z,14.78
2022-09-10T06:36:49.477Z,15.01
2022-09-10T06:39:37.199Z,14.91
2022-09-10T06:42:25.477Z,15.12
2022-09-10T06:45:28.254Z,15.13
2022-09-10T06:48:47.540Z,15.22
2022-09-10T06:51:39.609Z,15.26
2022-09-10T06:54:28.413Z,15.35
2022-09-10T06:57:20.532Z,15.33
2022-09-10T07:00:08.610Z,15.33
2022-09-10T07:02:56.487Z,15.40
2022-09-10T07:05:46.553Z,15.50
2022-09-10T07:08:34.739Z,15.80
2022-09-10T07:11:21.286Z,15.79
2022-09-10T07:14:08.208Z,15.89
2022-09-10T07:16:55.701Z,16.00
2022-09-10T07:19:44.810Z,16.18
2022-09-10T07:22:40.168Z,16.16
2022-09-10T07:25:31.350Z,16.14
2022-09-10T07:28:22.270Z,16.21
2022-09-10T07:31:14.525Z,16.34
2022-09-10T07:34:05.274Z,16.33
2022-09-10T07:36:52.501Z,16.37
2022-09-10T07:39:40.690Z,16.59
2022-09-10T07:42:29.759Z,16.63
2022-09-10T07:45:16.642Z,16.57
2022-09-10T07:48:04.562Z,16.70
2022-09-10T07:51:02.654Z,16.71
2022-09-10T07:53:58.097Z,16.71
2022-09-10T07:56:52.869Z,16.85
2022-09-10T07:59:44.195Z,17.02
2022-09-10T08:02:34.970Z,17.23
2022-09-10T08:05:25.318Z,17.31
2022-09-10T08:08:14.203Z,17.36
2022-09-10T08:11:19.059Z,17.61
2022-09-10T08:14:17.186Z,17.54
2022-09-10T08:17:14.203Z,17.75
2022-09-10T08:20:07.482Z,17.78
2022-09-10T08:26:02.761Z,18.31
2022-09-10T08:28:50.688Z,18.67
2022-09-10T08:31:38.847Z,18.66
2022-09-10T08:34:37.110Z,18.80
2022-09-10T08:37:27.471Z,18.74
2022-09-10T08:40:14.968Z,18.59
2022-09-10T08:43:03.456Z,18.46
2022-09-10T08:45:53.556Z,18.71
2022-09-10T08:48:41.581Z,18.82
2022-09-10T08:51:40.793Z,18.80
2022-09-10T08:54:35.694Z,18.97
2022-09-10T08:57:28.872Z,18.90
2022-09-10T09:00:24.524Z,19.11
2022-09-10T09:03:21.711Z,19.02
2022-09-10T09:06:21.026Z,19.26
2022-09-10T09:09:15.862Z,19.15
2022-09-10T09:12:15.821Z,19.18
2022-09-10T09:15:12.029Z,19.08
2022-09-10T09:18:19.750Z,19.40
2022-09-10T09:21:14.249Z,19.36
2022-09-10T09:24:13.238Z,19.55
2022-09-10T09:27:10.233Z,19.49
2022-09-10T09:30:03.919Z,19.68
2022-09-10T09:32:58.543Z,19.72
2022-09-10T09:35:50.714Z,19.87
2022-09-10T09:38:42.976Z,19.79
2022-09-10T09:41:39.454Z,19.92
2022-09-10T09:44:34.662Z,19.88
2022-09-10T09:47:21.616Z,20.09
2022-09-10T09:50:12.708Z,20.02
2022-09-10T09:52:59.192Z,20.20
2022-09-10T09:55:48.789Z,20.32
2022-09-10T09:58:37.794Z,20.31
2022-09-10T10:01:27.437Z,20.28
2022-09-10T10:04:23.003Z,20.40
2022-09-10T10:07:09.627Z,20.47
2022-09-10T10:09:56.056Z,20.47
2022-09-10T10:12:50.879Z,20.47
2022-09-10T10:15:39.778Z,20.61
2022-09-10T10:18:32.850Z,20.75
2022-09-10T10:21:22.448Z,20.75
2022-09-10T10:24:31.530Z,20.76
2022-09-10T10:27:21.618Z,20.87
2022-09-10T10:30:23.710Z,21.10
2022-09-10T10:33:19.285Z,21.27
2022-09-10T10:36:18.252Z,21.46
2022-09-10T10:39:16.754Z,21.26
2022-09-10T10:42:13.093Z,21.35
2022-09-10T10:45:14.355Z,21.48
2022-09-10T10:48:10.052Z,21.30
2022-09-10T10:51:07.045Z,20.93
2022-09-10T10:54:12.982Z,20.71
2022-09-10T10:57:15.895Z,20.71
2022-09-10T11:00:10.385Z,20.67
2022-09-10T11:03:05.037Z,20.83
2022-09-10T11:05:56.273Z,20.78
2022-09-10T11:08:53.736Z,20.51
2022-09-10T11:11:51.814Z,20.24
2022-09-10T11:14:46.146Z,20.24
2022-09-10T11:17:39.744Z,20.45
2022-09-10T11:20:33.021Z,20.67
2022-09-10T11:23:29.685Z,21.10
2022-09-10T11:26:23.082Z,21.20
2022-09-10T11:29:27.277Z,21.56
2022-09-10T11:32:20.043Z,21.88
2022-09-10T11:35:18.116Z,21.95
2022-09-10T11:38:14.079Z,21.77
2022-09-10T11:41:11.737Z,21.52
2022-09-10T11:44:12.338Z,21.50
2022-09-10T11:47:08.012Z,21.46
2022-09-10T11:50:01.292Z,21.39
2022-09-10T11:52:47.826Z,21.53
2022-09-10T11:55:49.374Z,21.68
2022-09-10T11:58:50.468Z,21.87
2022-09-10T12:01:51.976Z,21.86
2022-09-10T12:04:55.977Z,21.62
2022-09-10T12:07:51.019Z,21.60
2022-09-10T12:10:47.782Z,21.62
2022-09-10T12:13:39.469Z,21.16
2022-09-10T12:16:35.900Z,20.94
2022-09-10T12:19:29.379Z,20.66
2022-09-10T12:22:22.940Z,20.46
2022-09-10T12:25:30.416Z,20.26
2022-09-10T12:28:57.116Z,20.08
2022-09-10T12:32:32.453Z,19.86
2022-09-10T12:35:47.320Z,19.76
2022-09-10T12:39:10.907Z,19.59
2022-09-10T12:42:03.765Z,19.38
2022-09-10T12:44:50.500Z,19.18
2022-09-10T12:47:50.321Z,19.26
2022-09-10T12:50:46.135Z,19.16
2022-09-10T12:54:07.652Z,18.96
2022-09-10T12:57:12.869Z,18.93
2022-09-10T13:00:17.835Z,18.92
2022-09-10T13:03:15.643Z,19.01
2022-09-10T13:06:05.516Z,18.76
2022-09-10T13:08:53.930Z,18.79
2022-09-10T13:11:52.714Z,18.66
2022-09-10T13:14:46.737Z,18.49
2022-09-10T13:18:27.523Z,18.52
2022-09-10T13:21:53.100Z,18.52
2022-09-10T13:25:01.160Z,18.61
2022-09-10T13:27:48.642Z,18.50
2022-09-10T13:30:36.770Z,18.71
2022-09-10T13:33:29.308Z,18.65
2022-09-10T13:36:30.816Z,18.36
2022-09-10T13:39:40.216Z,18.35
2022-09-10T13:42:43.214Z,18.41
2022-09-10T13:45:38.747Z,18.66
2022-09-10T13:48:30.863Z,19.13
2022-09-10T13:51:28.943Z,19.50
2022-09-10T13:54:31.392Z,19.62
2022-09-10T13:57:22.482Z,19.87
2022-09-10T14:00:21.891Z,19.28
2022-09-10T14:03:16.571Z,19.84
2022-09-10T14:06:07.718Z,19.71
2022-09-10T14:08:57.784Z,19.68
2022-09-10T14:11:45.518Z,19.52
2022-09-10T14:14:39.915Z,19.39
2022-09-10T14:17:29.999Z,19.34
2022-09-10T14:20:22.305Z,19.23
2022-09-10T14:23:16.728Z,19.15
2022-09-10T14:26:12.882Z,18.97
2022-09-10T14:29:01.258Z,18.96
2022-09-10T14:31:47.768Z,18.93
2022-09-10T14:34:36.954Z,18.90
2022-09-10T14:37:33.519Z,18.79
2022-09-10T14:40:23.109Z,18.73
2022-09-10T14:43:16.610Z,18.72
2022-09-10T14:46:04.931Z,18.72
2022-09-10T14:49:04.661Z,18.66
2022-09-10T14:51:51.402Z,18.60
2022-09-10T14:54:39.890Z,18.28
2022-09-10T14:57:53.091Z,18.47
2022-09-10T15:00:40.115Z,18.45
2022-09-10T15:03:26.887Z,18.66
2022-09-10T15:06:16.164Z,18.71
2022-09-10T15:09:03.076Z,18.77
2022-09-10T15:11:55.631Z,18.70
2022-09-10T15:14:43.512Z,18.73
2022-09-10T15:17:30.565Z,18.82
2022-09-10T15:20:18.034Z,18.78
2022-09-10T15:23:04.560Z,18.53
2022-09-10T15:25:52.706Z,18.53
2022-09-10T15:28:39.192Z,18.63
2022-09-10T15:31:32.043Z,18.62
2022-09-10T15:34:19.410Z,18.46
2022-09-10T15:37:06.503Z,18.41
2022-09-10T15:39:53.852Z,18.30
2022-09-10T15:42:40.586Z,18.26
2022-09-10T15:45:27.485Z,18.03
2022-09-10T15:48:15.586Z,17.95
2022-09-10T15:51:04.096Z,17.94
2022-09-10T15:53:52.404Z,17.98
2022-09-10T15:56:39.828Z,17.99
2022-09-10T15:59:26.472Z,18.05
2022-09-10T16:02:14.066Z,18.01
2022-09-10T16:05:02.201Z,18.02
2022-09-10T16:07:49.742Z,18.08
2022-09-10T16:10:39.866Z,18.07
2022-09-10T16:13:27.084Z,18.00
2022-09-10T16:16:19.335Z,17.99
2022-09-10T16:19:07.025Z,18.01
2022-09-10T16:21:55.103Z,18.05
2022-09-10T16:24:44.812Z,17.89
2022-09-10T16:27:31.370Z,17.80
2022-09-10T16:30:18.156Z,17.79
2022-09-10T16:33:12.494Z,17.68
2022-09-10T16:36:05.021Z,17.65
2022-09-10T16:38:55.489Z,17.67
2022-09-10T16:41:43.880Z,17.68
2022-09-10T16:44:31.502Z,17.51
2022-09-10T16:47:18.955Z,17.38
2022-09-10T16:50:06.930Z,17.25
2022-09-10T16:52:54.711Z,17.13
2022-09-10T16:55:42.424Z,17.12
2022-09-10T16:58:36.097Z,17.08
2022-09-10T17:01:23.182Z,17.13
2022-09-10T17:04:18.518Z,17.02
2022-09-10T17:07:08.942Z,16.98
2022-09-10T17:10:00.108Z,16.95
2022-09-10T17:12:49.052Z,16.90
2022-09-10T17:15:35.896Z,16.92
2022-09-10T17:18:22.719Z,16.86
2022-09-10T17:21:09.571Z,17.04
2022-09-10T17:23:57.155Z,17.20
2022-09-10T17:26:43.789Z,17.09
2022-09-10T17:29:33.027Z,17.01
2022-09-10T17:32:19.389Z,16.84
2022-09-10T17:35:07.273Z,16.75
2022-09-10T17:37:54.039Z,16.67
2022-09-10T17:40:40.818Z,16.69
2022-09-10T17:43:28.190Z,16.52
2022-09-10T17:46:19.186Z,16.66
2022-09-10T17:49:06.572Z,16.39
2022-09-10T17:51:53.385Z,16.27
2022-09-10T17:54:39.922Z,16.01
2022-09-10T17:57:26.939Z,15.85
2022-09-10T18:00:14.672Z,15.68
2022-09-10T18:03:03.093Z,15.70
2022-09-10T18:05:49.802Z,15.68
2022-09-10T18:08:37.795Z,15.63
2022-09-10T18:11:27.205Z,15.58
2022-09-10T18:14:16.802Z,15.53
2022-09-10T18:17:03.760Z,15.50
2022-09-10T18:19:52.634Z,15.48
2022-09-10T18:22:39.370Z,15.37
2022-09-10T18:25:28.132Z,15.30
2022-09-10T18:28:14.928Z,15.24
2022-09-10T18:31:03.614Z,15.22
2022-09-10T18:33:50.462Z,15.16
2022-09-10T18:36:38.680Z,15.06
2022-09-10T18:39:26.650Z,15.00
2022-09-10T18:42:13.895Z,14.99
2022-09-10T18:45:00.618Z,14.95
2022-09-10T18:47:49.150Z,14.97
2022-09-10T18:50:36.501Z,14.93
2022-09-10T18:53:24.291Z,14.86
2022-09-10T18:56:12.914Z,14.77
2022-09-10T18:59:01.738Z,14.70
2022-09-10T19:01:55.082Z,14.63
2022-09-10T19:05:07.743Z,14.59
2022-09-10T19:07:54.173Z,14.50
2022-09-10T19:10:42.304Z,14.43
2022-09-10T19:13:29.928Z,14.38
2022-09-10T19:16:16.765Z,14.33
2022-09-10T19:19:05.866Z,14.28
2022-09-10T19:21:55.135Z,14.27
2022-09-10T19:24:57.683Z,14.35
2022-09-10T19:27:46.268Z,14.26
2022-09-10T19:30:38.464Z,14.22
2022-09-10T19:33:24.982Z,14.16
2022-09-10T19:36:14.428Z,14.14
2022-09-10T19:39:01.887Z,14.09
2022-09-10T19:41:50.222Z,14.09
2022-09-10T19:44:38.186Z,14.04
2022-09-10T19:47:25.006Z,13.98
2022-09-10T19:50:12.197Z,13.95
2022-09-10T19:52:58.657Z,13.96
2022-09-10T19:55:45.446Z,13.99
2022-09-10T19:58:32.530Z,13.84
2022-09-10T20:01:23.611Z,13.92
2022-09-10T20:04:11.867Z,13.99
2022-09-10T20:06:58.358Z,13.98
2022-09-10T20:09:45.697Z,13.97
2022-09-10T20:12:34.413Z,13.98
2022-09-10T20:15:21.405Z,13.94
2022-09-10T20:18:09.519Z,13.90
2022-09-10T20:20:57.576Z,13.87
2022-09-10T20:23:47.137Z,13.85
2022-09-10T20:26:35.385Z,13.86
2022-09-10T20:29:23.249Z,13.86
2022-09-10T20:32:09.705Z,13.87
2022-09-10T20:34:57.750Z,13.85
2022-09-10T20:37:46.167Z,13.85
2022-09-10T20:40:36.399Z,13.82
2022-09-10T20:43:29.104Z,13.83
2022-09-10T20:46:18.155Z,13.81
2022-09-10T20:49:05.064Z,13.80
2022-09-10T20:51:53.574Z,13.76
2022-09-10T20:54:40.262Z,13.70
2022-09-10T20:57:30.225Z,13.69
2022-09-10T21:00:17.123Z,13.69
2022-09-10T21:03:04.187Z,13.65
2022-09-10T21:05:50.869Z,13.60
2022-09-10T21:08:48.333Z,13.61
2022-09-10T21:11:42.331Z,13.64
2022-09-10T21:14:33.161Z,13.56
2022-09-10T21:17:21.645Z,13.54
2022-09-10T21:20:08.651Z,13.53
2022-09-10T21:22:56.402Z,13.54
2022-09-10T21:25:52.674Z,13.48
2022-09-10T21:28:39.663Z,13.42
2022-09-10T21:31:27.344Z,13.42
2022-09-10T21:34:18.159Z,13.39
2022-09-10T21:37:06.085Z,13.40
2022-09-10T21:39:53.191Z,13.38
2022-09-10T21:42:41.315Z,13.34
2022-09-10T21:45:28.962Z,13.34
2022-09-10T21:48:15.822Z,13.34
2022-09-10T21:51:05.017Z,13.36
2022-09-10T21:53:55.054Z,13.29
2022-09-10T21:56:43.297Z,13.24
2022-09-10T21:59:31.400Z,13.25
2022-09-10T22:02:19.163Z,13.30
2022-09-10T22:05:06.273Z,13.27
2022-09-10T22:07:53.269Z,13.25
2022-09-10T22:10:41.635Z,13.22
2022-09-10T22:13:28.608Z,13.19
2022-09-10T22:16:16.974Z,13.19
2022-09-10T22:19:07.457Z,13.26
2022-09-10T22:21:56.793Z,13.23
2022-09-10T22:24:43.258Z,13.16
2022-09-10T22:27:29.973Z,13.12
2022-09-10T22:30:17.195Z,13.13
2022-09-10T22:33:05.456Z,13.10
2022-09-10T22:35:52.038Z,13.08
2022-09-10T22:38:38.899Z,13.05
2022-09-10T22:41:25.980Z,13.01
2022-09-10T22:44:13.460Z,13.07
2022-09-10T22:46:59.992Z,13.03
2022-09-10T22:49:48.050Z,13.02
2022-09-10T22:52:35.228Z,13.09
2022-09-10T22:55:21.759Z,13.04
2022-09-10T22:58:08.490Z,13.04
2022-09-10T23:00:56.118Z,13.08
2022-09-10T23:03:44.133Z,13.12
2022-09-10T23:06:33.917Z,13.05
2022-09-10T23:09:20.540Z,13.02
2022-09-10T23:12:07.559Z,13.00
2022-09-10T23:14:54.046Z,13.02
2022-09-10T23:17:40.761Z,13.04
2022-09-10T23:20:28.229Z,13.02
2022-09-10T23:23:16.135Z,13.01
2022-09-10T23:26:08.916Z,13.01
2022-09-10T23:28:56.499Z,13.01
2022-09-10T23:31:43.122Z,13.00
2022-09-10T23:34:29.976Z,13.00
2022-09-10T23:37:17.535Z,12.99
2022-09-10T23:40:06.177Z,12.98
2022-09-10T23:42:52.683Z,12.94
2022-09-10T23:45:39.415Z,12.94
2022-09-10T23:48:26.606Z,12.92
2022-09-10T23:51:15.597Z,12.94
2022-09-10T23:54:02.589Z,12.87
2022-09-10T23:56:50.833Z,12.82
2022-09-10T23:59:37.568Z,12.82
